sensor_id;sensor_type;location;lat;lon;timestamp;pressure;altitude;pressure_sealevel;temperature;humidity
60654;BME280;46476;53.614;10.048;2022-08-02T00:00:12;101642.44;;;18.46;52.10
60654;BME280;46476;53.614;10.048;2022-08-02T00:02:39;101643.66;;;18.44;52.11
60654;BME280;46476;53.614;10.048;2022-08-02T00:05:05;101635.78;;;18.41;52.09
60654;BME280;46476;53.614;10.048;2022-08-02T00:07:30;101640.59;;;18.39;52.20
60654;BME280;46476;53.614;10.048;2022-08-02T00:09:56;101642.47;;;18.38;52.35
60654;BME280;46476;53.614;10.048;2022-08-02T00:12:21;101638.38;;;18.34;52.18
60654;BME280;46476;53.614;10.048;2022-08-02T00:14:47;101642.53;;;18.30;52.44
60654;BME280;46476;53.614;10.048;2022-08-02T00:17:12;101642.72;;;18.28;52.50
60654;BME280;46476;53.614;10.048;2022-08-02T00:19:37;101643.38;;;18.30;52.50
60654;BME280;46476;53.614;10.048;2022-08-02T00:22:03;101642.53;;;18.30;52.41
60654;BME280;46476;53.614;10.048;2022-08-02T00:24:28;101641.00;;;18.27;52.47
60654;BME280;46476;53.614;10.048;2022-08-02T00:26:53;101634.00;;;18.25;52.31
60654;BME280;46476;53.614;10.048;2022-08-02T00:29:18;101637.63;;;18.25;52.44
60654;BME280;46476;53.614;10.048;2022-08-02T00:31:44;101624.25;;;18.22;52.60
60654;BME280;46476;53.614;10.048;2022-08-02T00:34:09;101622.72;;;18.20;53.01
60654;BME280;46476;53.614;10.048;2022-08-02T00:36:34;101622.22;;;18.16;52.60
60654;BME280;46476;53.614;10.048;2022-08-02T00:39:00;101623.44;;;18.13;52.82
60654;BME280;46476;53.614;10.048;2022-08-02T00:41:25;101618.16;;;18.12;52.99
60654;BME280;46476;53.614;10.048;2022-08-02T00:43:51;101618.84;;;18.14;52.89
60654;BME280;46476;53.614;10.048;2022-08-02T00:46:18;101631.84;;;18.12;52.77
60654;BME280;46476;53.614;10.048;2022-08-02T00:48:44;101628.91;;;18.13;52.95
60654;BME280;46476;53.614;10.048;2022-08-02T00:51:11;101637.00;;;18.15;52.71
60654;BME280;46476;53.614;10.048;2022-08-02T00:53:37;101631.84;;;18.12;52.65
60654;BME280;46476;53.614;10.048;2022-08-02T00:56:02;101636.19;;;18.06;52.79
60654;BME280;46476;53.614;10.048;2022-08-02T00:58:28;101640.78;;;18.06;52.68
60654;BME280;46476;53.614;10.048;2022-08-02T01:00:53;101650.22;;;18.03;52.74
60654;BME280;46476;53.614;10.048;2022-08-02T01:03:22;101642.19;;;18.02;52.70
60654;BME280;46476;53.614;10.048;2022-08-02T01:05:47;101646.63;;;18.03;52.69
60654;BME280;46476;53.614;10.048;2022-08-02T01:08:13;101647.66;;;18.02;52.81
60654;BME280;46476;53.614;10.048;2022-08-02T01:10:38;101653.13;;;18.02;52.68
60654;BME280;46476;53.614;10.048;2022-08-02T01:13:03;101662.38;;;18.01;52.74
60654;BME280;46476;53.614;10.048;2022-08-02T01:15:29;101666.34;;;17.98;52.64
60654;BME280;46476;53.614;10.048;2022-08-02T01:18:33;101661.03;;;17.96;52.77
60654;BME280;46476;53.614;10.048;2022-08-02T01:30:03;101664.50;;;17.82;53.00
60654;BME280;46476;53.614;10.048;2022-08-02T01:32:36;101657.50;;;17.79;53.05
60654;BME280;46476;53.614;10.048;2022-08-02T01:35:13;101647.75;;;17.77;53.17
60654;BME280;46476;53.614;10.048;2022-08-02T01:37:43;101653.41;;;17.75;53.20
60654;BME280;46476;53.614;10.048;2022-08-02T01:40:20;101661.44;;;17.77;53.29
60654;BME280;46476;53.614;10.048;2022-08-02T01:42:50;101655.63;;;17.80;53.24
60654;BME280;46476;53.614;10.048;2022-08-02T01:45:18;101660.41;;;17.78;53.33
60654;BME280;46476;53.614;10.048;2022-08-02T01:47:45;101659.06;;;17.74;53.38
60654;BME280;46476;53.614;10.048;2022-08-02T01:50:15;101651.69;;;17.74;53.29
60654;BME280;46476;53.614;10.048;2022-08-02T01:52:49;101655.63;;;17.72;53.39
60654;BME280;46476;53.614;10.048;2022-08-02T01:55:20;101653.06;;;17.70;53.34
60654;BME280;46476;53.614;10.048;2022-08-02T01:57:53;101668.81;;;17.68;53.17
60654;BME280;46476;53.614;10.048;2022-08-02T02:00:20;101657.22;;;17.66;53.25
60654;BME280;46476;53.614;10.048;2022-08-02T02:02:48;101670.03;;;17.65;53.43
60654;BME280;46476;53.614;10.048;2022-08-02T02:05:19;101670.03;;;17.65;53.45
60654;BME280;46476;53.614;10.048;2022-08-02T02:07:45;101670.03;;;17.65;53.22
60654;BME280;46476;53.614;10.048;2022-08-02T02:10:16;101669.19;;;17.65;53.24
60654;BME280;46476;53.614;10.048;2022-08-02T02:12:43;101665.59;;;17.64;53.27
60654;BME280;46476;53.614;10.048;2022-08-02T02:15:11;101670.38;;;17.62;53.29
60654;BME280;46476;53.614;10.048;2022-08-02T02:17:40;101669.03;;;17.58;53.37
60654;BME280;46476;53.614;10.048;2022-08-02T02:20:08;101670.75;;;17.59;53.47
60654;BME280;46476;53.614;10.048;2022-08-02T02:22:34;101677.59;;;17.55;53.34
60654;BME280;46476;53.614;10.048;2022-08-02T02:24:59;101664.94;;;17.54;53.22
60654;BME280;46476;53.614;10.048;2022-08-02T02:27:24;101669.03;;;17.50;53.04
60654;BME280;46476;53.614;10.048;2022-08-02T02:29:52;101665.63;;;17.48;53.25
60654;BME280;46476;53.614;10.048;2022-08-02T02:32:19;101656.56;;;17.47;53.55
60654;BME280;46476;53.614;10.048;2022-08-02T02:34:48;101656.41;;;17.49;53.15
60654;BME280;46476;53.614;10.048;2022-08-02T02:37:22;101648.53;;;17.46;53.49
60654;BME280;46476;53.614;10.048;2022-08-02T02:39:50;101637.56;;;17.46;53.48
60654;BME280;46476;53.614;10.048;2022-08-02T02:42:17;101634.00;;;17.45;53.39
60654;BME280;46476;53.614;10.048;2022-08-02T02:44:45;101635.88;;;17.45;53.23
60654;BME280;46476;53.614;10.048;2022-08-02T02:47:13;101635.38;;;17.41;53.12
60654;BME280;46476;53.614;10.048;2022-08-02T02:49:40;101635.56;;;17.40;53.27
60654;BME280;46476;53.614;10.048;2022-08-02T02:52:07;101637.59;;;17.38;53.39
60654;BME280;46476;53.614;10.048;2022-08-02T02:54:33;101634.34;;;17.34;53.41
60654;BME280;46476;53.614;10.048;2022-08-02T02:56:59;101634.53;;;17.32;53.41
60654;BME280;46476;53.614;10.048;2022-08-02T02:59:26;101628.03;;;17.34;53.31
60654;BME280;46476;53.614;10.048;2022-08-02T03:01:52;101633.84;;;17.30;53.26
60654;BME280;46476;53.614;10.048;2022-08-02T03:04:19;101632.16;;;17.29;53.36
60654;BME280;46476;53.614;10.048;2022-08-02T03:06:45;101627.88;;;17.27;53.57
60654;BME280;46476;53.614;10.048;2022-08-02T03:09:10;101637.31;;;17.24;53.49
60654;BME280;46476;53.614;10.048;2022-08-02T03:11:36;101628.22;;;17.24;53.46
60654;BME280;46476;53.614;10.048;2022-08-02T03:14:03;101628.41;;;17.22;53.45
60654;BME280;46476;53.614;10.048;2022-08-02T03:16:29;101634.22;;;17.19;53.57
60654;BME280;46476;53.614;10.048;2022-08-02T03:18:56;101621.75;;;17.17;53.53
60654;BME280;46476;53.614;10.048;2022-08-02T03:21:22;101627.88;;;17.19;53.63
60654;BME280;46476;53.614;10.048;2022-08-02T03:23:48;101623.28;;;17.19;53.66
60654;BME280;46476;53.614;10.048;2022-08-02T03:26:14;101622.09;;;17.22;53.70
60654;BME280;46476;53.614;10.048;2022-08-02T03:28:40;101624.81;;;17.22;53.67
60654;BME280;46476;53.614;10.048;2022-08-02T03:31:05;101624.31;;;17.18;53.67
60654;BME280;46476;53.614;10.048;2022-08-02T03:33:32;101622.06;;;17.13;53.78
60654;BME280;46476;53.614;10.048;2022-08-02T03:36:03;101620.53;;;17.11;53.79
60654;BME280;46476;53.614;10.048;2022-08-02T03:38:31;101625.34;;;17.09;53.89
60654;BME280;46476;53.614;10.048;2022-08-02T03:40:59;101630.81;;;17.09;54.02
60654;BME280;46476;53.614;10.048;2022-08-02T03:43:25;101624.31;;;17.10;53.77
60654;BME280;46476;53.614;10.048;2022-08-02T03:45:51;101629.09;;;17.08;54.10
60654;BME280;46476;53.614;10.048;2022-08-02T03:48:18;101616.28;;;17.08;54.28
60654;BME280;46476;53.614;10.048;2022-08-02T03:50:46;101621.41;;;17.11;54.31
60654;BME280;46476;53.614;10.048;2022-08-02T03:53:13;101614.91;;;17.21;54.21
60654;BME280;46476;53.614;10.048;2022-08-02T03:55:40;101614.72;;;17.22;54.33
60654;BME280;46476;53.614;10.048;2022-08-02T03:58:05;101597.47;;;17.05;54.12
60654;BME280;46476;53.614;10.048;2022-08-02T04:00:31;101608.41;;;16.80;54.83
60654;BME280;46476;53.614;10.048;2022-08-02T04:02:56;101605.69;;;16.64;54.99
60654;BME280;46476;53.614;10.048;2022-08-02T04:05:22;101612.53;;;16.76;55.46
60654;BME280;46476;53.614;10.048;2022-08-02T04:07:47;101604.84;;;16.96;54.68
60654;BME280;46476;53.614;10.048;2022-08-02T04:10:13;101615.59;;;17.06;54.36
60654;BME280;46476;53.614;10.048;2022-08-02T04:12:39;101622.94;;;17.14;54.02
60654;BME280;46476;53.614;10.048;2022-08-02T04:15:05;101625.16;;;17.19;54.19
60654;BME280;46476;53.614;10.048;2022-08-02T04:17:32;101624.31;;;17.18;54.07
60654;BME280;46476;53.614;10.048;2022-08-02T04:20:09;101626.88;;;17.20;54.30
60654;BME280;46476;53.614;10.048;2022-08-02T04:22:48;101630.63;;;17.19;54.47
60654;BME280;46476;53.614;10.048;2022-08-02T04:25:15;101630.63;;;17.19;54.40
60654;BME280;46476;53.614;10.048;2022-08-02T04:27:40;101632.84;;;17.23;54.52
60654;BME280;46476;53.614;10.048;2022-08-02T04:30:07;101631.47;;;17.27;54.59
60654;BME280;46476;53.614;10.048;2022-08-02T04:32:33;101635.56;;;17.31;54.59
60654;BME280;46476;53.614;10.048;2022-08-02T04:35:00;101643.59;;;17.33;54.54
60654;BME280;46476;53.614;10.048;2022-08-02T04:37:25;101643.44;;;17.35;54.53
60654;BME280;46476;53.614;10.048;2022-08-02T04:39:53;101637.78;;;17.36;54.65
60654;BME280;46476;53.614;10.048;2022-08-02T04:42:25;101651.28;;;17.38;54.63
60654;BME280;46476;53.614;10.048;2022-08-02T04:44:51;101647.88;;;17.44;54.82
60654;BME280;46476;53.614;10.048;2022-08-02T04:47:18;101640.63;;;17.59;54.45
60654;BME280;46476;53.614;10.048;2022-08-02T04:49:44;101627.59;;;17.70;54.37
60654;BME280;46476;53.614;10.048;2022-08-02T04:52:09;101639.53;;;17.77;54.14
60654;BME280;46476;53.614;10.048;2022-08-02T04:54:36;101649.22;;;17.88;53.81
60654;BME280;46476;53.614;10.048;2022-08-02T04:57:01;101646.31;;;17.97;53.54
60654;BME280;46476;53.614;10.048;2022-08-02T04:59:47;101641.66;;;18.06;53.25
60654;BME280;46476;53.614;10.048;2022-08-02T05:02:12;101637.69;;;18.09;53.00
60654;BME280;46476;53.614;10.048;2022-08-02T05:04:38;101627.13;;;17.97;53.35
60654;BME280;46476;53.614;10.048;2022-08-02T05:07:03;101635.81;;;17.61;53.95
60654;BME280;46476;53.614;10.048;2022-08-02T05:09:28;101642.00;;;17.55;54.75
60654;BME280;46476;53.614;10.048;2022-08-02T05:12:15;101645.38;;;17.74;54.17
60654;BME280;46476;53.614;10.048;2022-08-02T05:14:41;101636.75;;;17.85;53.88
60654;BME280;46476;53.614;10.048;2022-08-02T05:17:06;101642.88;;;17.95;53.77
60654;BME280;46476;53.614;10.048;2022-08-02T05:19:31;101640.97;;;18.04;53.49
60654;BME280;46476;53.614;10.048;2022-08-02T05:21:57;101637.69;;;18.09;53.40
60654;BME280;46476;53.614;10.048;2022-08-02T05:24:22;101635.47;;;18.12;53.46
60654;BME280;46476;53.614;10.048;2022-08-02T05:26:47;101631.50;;;18.15;53.63
60654;BME280;46476;53.614;10.048;2022-08-02T05:29:13;101626.88;;;18.16;53.72
60654;BME280;46476;53.614;10.048;2022-08-02T05:31:38;101634.72;;;18.19;53.91
60654;BME280;46476;53.614;10.048;2022-08-02T05:34:03;101638.47;;;18.26;53.91
60654;BME280;46476;53.614;10.048;2022-08-02T05:36:29;101638.97;;;18.29;54.01
60654;BME280;46476;53.614;10.048;2022-08-02T05:38:54;101638.38;;;18.34;54.15
60654;BME280;46476;53.614;10.048;2022-08-02T05:41:19;101641.63;;;18.38;54.35
60654;BME280;46476;53.614;10.048;2022-08-02T05:43:46;101647.44;;;18.43;54.47
60654;BME280;46476;53.614;10.048;2022-08-02T05:46:11;101643.97;;;18.49;54.63
60654;BME280;46476;53.614;10.048;2022-08-02T05:48:36;101642.38;;;18.55;54.76
60654;BME280;46476;53.614;10.048;2022-08-02T05:51:04;101636.34;;;18.59;54.78
60654;BME280;46476;53.614;10.048;2022-08-02T05:59:25;101638.09;;;18.75;55.07
60654;BME280;46476;53.614;10.048;2022-08-02T06:02:02;101640.66;;;18.77;54.79
60654;BME280;46476;53.614;10.048;2022-08-02T06:04:48;101637.13;;;18.68;55.13
60654;BME280;46476;53.614;10.048;2022-08-02T06:07:18;101638.38;;;18.66;55.36
60654;BME280;46476;53.614;10.048;2022-08-02T06:09:43;101632.81;;;18.74;55.24
60654;BME280;46476;53.614;10.048;2022-08-02T06:12:10;101637.47;;;18.88;54.62
60654;BME280;46476;53.614;10.048;2022-08-02T06:14:36;101632.91;;;19.04;54.45
60654;BME280;46476;53.614;10.048;2022-08-02T06:17:05;101631.78;;;18.98;54.52
60654;BME280;46476;53.614;10.048;2022-08-02T06:19:31;101636.69;;;19.03;54.61
60654;BME280;46476;53.614;10.048;2022-08-02T06:21:57;101633.28;;;19.01;54.47
60654;BME280;46476;53.614;10.048;2022-08-02T06:24:38;101633.28;;;19.01;54.14
60654;BME280;46476;53.614;10.048;2022-08-02T06:27:04;101636.25;;;19.14;54.01
60654;BME280;46476;53.614;10.048;2022-08-02T06:29:31;101640.41;;;19.10;53.50
60654;BME280;46476;53.614;10.048;2022-08-02T06:31:57;101641.16;;;19.19;53.35
60654;BME280;46476;53.614;10.048;2022-08-02T06:34:22;101644.66;;;19.27;53.11
60654;BME280;46476;53.614;10.048;2022-08-02T06:36:57;101644.47;;;19.29;52.57
60654;BME280;46476;53.614;10.048;2022-08-02T06:39:38;101642.13;;;19.26;52.72
60654;BME280;46476;53.614;10.048;2022-08-02T06:42:11;101639.75;;;19.23;52.72
60654;BME280;46476;53.614;10.048;2022-08-02T06:44:37;101639.13;;;19.36;53.56
60654;BME280;46476;53.614;10.048;2022-08-02T06:47:03;101641.19;;;19.63;52.61
60654;BME280;46476;53.614;10.048;2022-08-02T06:49:29;101639.47;;;19.62;51.68
60654;BME280;46476;53.614;10.048;2022-08-02T06:51:54;101638.91;;;19.52;51.79
60654;BME280;46476;53.614;10.048;2022-08-02T06:54:19;101632.50;;;19.45;51.91
60654;BME280;46476;53.614;10.048;2022-08-02T06:56:46;101640.72;;;19.45;51.88
60654;BME280;46476;53.614;10.048;2022-08-02T06:59:11;101630.88;;;19.36;52.02
60654;BME280;46476;53.614;10.048;2022-08-02T07:01:37;101635.13;;;19.38;51.71
60654;BME280;46476;53.614;10.048;2022-08-02T07:04:03;101636.72;;;19.18;51.90
60654;BME280;46476;53.614;10.048;2022-08-02T07:06:28;101633.59;;;19.06;52.10
60654;BME280;46476;53.614;10.048;2022-08-02T07:08:54;101630.53;;;19.01;52.68
60654;BME280;46476;53.614;10.048;2022-08-02T07:11:19;101626.38;;;19.05;52.60
60654;BME280;46476;53.614;10.048;2022-08-02T07:13:45;101616.72;;;19.09;52.18
60654;BME280;46476;53.614;10.048;2022-08-02T07:16:10;101624.53;;;19.20;52.29
60654;BME280;46476;53.614;10.048;2022-08-02T07:18:35;101626.78;;;19.32;52.16
60654;BME280;46476;53.614;10.048;2022-08-02T07:21:01;101622.81;;;19.34;51.94
60654;BME280;46476;53.614;10.048;2022-08-02T07:23:29;101623.28;;;19.38;51.69
60654;BME280;46476;53.614;10.048;2022-08-02T07:25:54;101609.56;;;19.38;51.60
60654;BME280;46476;53.614;10.048;2022-08-02T07:28:20;101615.63;;;19.33;51.55
60654;BME280;46476;53.614;10.048;2022-08-02T07:30:45;101606.16;;;19.36;51.70
60654;BME280;46476;53.614;10.048;2022-08-02T07:33:10;101608.34;;;19.25;51.92
60654;BME280;46476;53.614;10.048;2022-08-02T07:35:36;101602.75;;;19.34;51.70
60654;BME280;46476;53.614;10.048;2022-08-02T07:38:01;101612.88;;;19.48;51.08
60654;BME280;46476;53.614;10.048;2022-08-02T07:40:26;101621.69;;;19.58;51.03
60654;BME280;46476;53.614;10.048;2022-08-02T07:42:54;101619.69;;;19.67;50.92
60654;BME280;46476;53.614;10.048;2022-08-02T07:45:21;101615.50;;;19.71;50.77
60654;BME280;46476;53.614;10.048;2022-08-02T07:47:47;101612.00;;;19.77;50.66
60654;BME280;46476;53.614;10.048;2022-08-02T07:50:14;101617.63;;;19.84;50.35
60654;BME280;46476;53.614;10.048;2022-08-02T07:52:40;101618.09;;;19.88;49.56
60654;BME280;46476;53.614;10.048;2022-08-02T07:55:07;101611.16;;;19.92;49.85
60654;BME280;46476;53.614;10.048;2022-08-02T07:57:33;101613.31;;;19.97;49.60
60654;BME280;46476;53.614;10.048;2022-08-02T07:59:58;101612.47;;;19.96;49.38
60654;BME280;46476;53.614;10.048;2022-08-02T08:02:24;101611.22;;;19.99;49.28
60654;BME280;46476;53.614;10.048;2022-08-02T08:04:50;101605.34;;;20.02;49.46
60654;BME280;46476;53.614;10.048;2022-08-02T08:07:15;101600.09;;;20.07;48.88
60654;BME280;46476;53.614;10.048;2022-08-02T08:09:40;101601.44;;;20.11;49.40
60654;BME280;46476;53.614;10.048;2022-08-02T08:12:07;101598.56;;;20.19;49.46
60654;BME280;46476;53.614;10.048;2022-08-02T08:14:32;101597.91;;;20.17;49.08
60654;BME280;46476;53.614;10.048;2022-08-02T08:16:57;101587.69;;;20.11;49.22
60654;BME280;46476;53.614;10.048;2022-08-02T08:19:23;101591.69;;;20.08;48.91
60654;BME280;46476;53.614;10.048;2022-08-02T08:21:48;101589.00;;;20.15;49.34
60654;BME280;46476;53.614;10.048;2022-08-02T08:24:13;101589.28;;;20.20;49.24
60654;BME280;46476;53.614;10.048;2022-08-02T08:26:39;101575.38;;;20.28;49.29
60654;BME280;46476;53.614;10.048;2022-08-02T08:29:04;101566.34;;;20.35;49.60
60654;BME280;46476;53.614;10.048;2022-08-02T08:31:31;101566.28;;;20.50;49.27
60654;BME280;46476;53.614;10.048;2022-08-02T08:33:57;101566.41;;;20.63;48.94
60654;BME280;46476;53.614;10.048;2022-08-02T08:36:22;101555.94;;;20.73;48.63
60654;BME280;46476;53.614;10.048;2022-08-02T08:38:48;101566.34;;;20.78;48.33
60654;BME280;46476;53.614;10.048;2022-08-02T08:41:17;101557.00;;;20.72;48.41
60654;BME280;46476;53.614;10.048;2022-08-02T08:43:43;101564.63;;;20.77;48.63
60654;BME280;46476;53.614;10.048;2022-08-02T08:46:10;101556.78;;;20.74;48.27
60654;BME280;46476;53.614;10.048;2022-08-02T08:48:40;101560.38;;;20.74;48.39
60654;BME280;46476;53.614;10.048;2022-08-02T08:51:10;101548.13;;;20.77;47.95
60654;BME280;46476;53.614;10.048;2022-08-02T08:53:42;101543.69;;;20.76;48.21
60654;BME280;46476;53.614;10.048;2022-08-02T08:56:12;101545.56;;;20.75;48.31
60654;BME280;46476;53.614;10.048;2022-08-02T08:58:38;101553.94;;;20.89;48.12
60654;BME280;46476;53.614;10.048;2022-08-02T09:01:03;101552.06;;;20.96;47.72
60654;BME280;46476;53.614;10.048;2022-08-02T09:03:29;101552.53;;;21.00;47.60
60654;BME280;46476;53.614;10.048;2022-08-02T09:05:56;101551.31;;;21.09;47.23
60654;BME280;46476;53.614;10.048;2022-08-02T09:08:22;101553.91;;;21.17;47.15
60654;BME280;46476;53.614;10.048;2022-08-02T09:10:47;101559.66;;;21.22;46.94
60654;BME280;46476;53.614;10.048;2022-08-02T09:15:52;101553.53;;;21.27;46.09
60654;BME280;46476;53.614;10.048;2022-08-02T09:18:18;101549.78;;;21.35;46.14
60654;BME280;46476;53.614;10.048;2022-08-02T09:20:52;101539.66;;;21.42;46.33
60654;BME280;46476;53.614;10.048;2022-08-02T09:23:17;101539.47;;;21.50;46.07
60654;BME280;46476;53.614;10.048;2022-08-02T09:25:54;101540.78;;;21.54;46.17
60654;BME280;46476;53.614;10.048;2022-08-02T09:28:21;101539.31;;;21.58;46.51
60654;BME280;46476;53.614;10.048;2022-08-02T09:30:49;101532.97;;;21.65;47.05
60654;BME280;46476;53.614;10.048;2022-08-02T09:33:26;101527.28;;;21.73;46.74
60654;BME280;46476;53.614;10.048;2022-08-02T09:36:02;101520.94;;;21.79;46.62
60654;BME280;46476;53.614;10.048;2022-08-02T09:38:29;101522.03;;;21.85;46.36
60654;BME280;46476;53.614;10.048;2022-08-02T09:40:55;101518.84;;;21.88;46.70
60654;BME280;46476;53.614;10.048;2022-08-02T09:43:20;101524.16;;;21.96;48.47
60654;BME280;46476;53.614;10.048;2022-08-02T09:45:47;101537.56;;;22.06;46.45
60654;BME280;46476;53.614;10.048;2022-08-02T09:48:12;101532.66;;;22.08;46.02
60654;BME280;46476;53.614;10.048;2022-08-02T09:50:40;101531.38;;;22.04;45.95
60654;BME280;46476;53.614;10.048;2022-08-02T09:53:11;101527.13;;;22.01;45.06
60654;BME280;46476;53.614;10.048;2022-08-02T09:55:40;101518.66;;;22.03;45.65
60654;BME280;46476;53.614;10.048;2022-08-02T09:58:16;101527.56;;;22.05;45.28
60654;BME280;46476;53.614;10.048;2022-08-02T10:00:55;101527.16;;;22.08;45.32
60654;BME280;46476;53.614;10.048;2022-08-02T10:03:21;101519.09;;;22.13;46.25
60654;BME280;46476;53.614;10.048;2022-08-02T10:05:50;101522.50;;;22.22;46.04
60654;BME280;46476;53.614;10.048;2022-08-02T10:08:16;101525.69;;;22.25;45.55
60654;BME280;46476;53.614;10.048;2022-08-02T10:10:42;101525.06;;;22.23;46.21
60654;BME280;46476;53.614;10.048;2022-08-02T10:13:08;101527.19;;;22.28;46.15
60654;BME280;46476;53.614;10.048;2022-08-02T10:15:35;101526.75;;;22.24;45.18
60654;BME280;46476;53.614;10.048;2022-08-02T10:18:03;101521.88;;;22.27;45.55
60654;BME280;46476;53.614;10.048;2022-08-02T10:20:29;101521.44;;;22.30;46.18
60654;BME280;46476;53.614;10.048;2022-08-02T10:22:57;101521.06;;;22.33;45.03
60654;BME280;46476;53.614;10.048;2022-08-02T10:25:24;101509.16;;;22.32;44.61
60654;BME280;46476;53.614;10.048;2022-08-02T10:27:50;101517.22;;;22.34;45.40
60654;BME280;46476;53.614;10.048;2022-08-02T10:30:15;101514.69;;;22.39;45.15
60654;BME280;46476;53.614;10.048;2022-08-02T10:32:42;101527.66;;;22.45;44.36
60654;BME280;46476;53.614;10.048;2022-08-02T10:35:12;101515.34;;;22.48;43.87
60654;BME280;46476;53.614;10.048;2022-08-02T10:37:40;101517.25;;;22.47;43.61
60654;BME280;46476;53.614;10.048;2022-08-02T10:40:08;101507.28;;;22.46;43.97
60654;BME280;46476;53.614;10.048;2022-08-02T10:42:55;101512.81;;;22.46;42.57
60654;BME280;46476;53.614;10.048;2022-08-02T10:45:23;101506.63;;;22.37;43.48
60654;BME280;46476;53.614;10.048;2022-08-02T10:48:11;101489.03;;;22.38;43.51
60654;BME280;46476;53.614;10.048;2022-08-02T10:53:20;101492.44;;;22.47;42.76
60654;BME280;46476;53.614;10.048;2022-08-02T10:55:45;101493.03;;;22.49;42.96
60654;BME280;46476;53.614;10.048;2022-08-02T10:58:22;101479.03;;;22.51;42.11
60654;BME280;46476;53.614;10.048;2022-08-02T11:00:48;101480.94;;;22.50;42.17
60654;BME280;46476;53.614;10.048;2022-08-02T11:03:38;101473.50;;;22.51;40.41
60654;BME280;46476;53.614;10.048;2022-08-02T11:06:13;101475.22;;;22.52;41.81
60654;BME280;46476;53.614;10.048;2022-08-02T11:08:39;101471.19;;;22.54;41.28
60654;BME280;46476;53.614;10.048;2022-08-02T11:14:00;101455.47;;;22.62;41.15
60654;BME280;46476;53.614;10.048;2022-08-02T11:17:03;101462.47;;;22.64;41.00
60654;BME280;46476;53.614;10.048;2022-08-02T11:19:30;101460.31;;;22.66;42.09
60654;BME280;46476;53.614;10.048;2022-08-02T11:22:10;101466.06;;;22.71;40.87
60654;BME280;46476;53.614;10.048;2022-08-02T11:24:37;101456.94;;;22.71;41.49
60654;BME280;46476;53.614;10.048;2022-08-02T11:27:23;101463.97;;;22.67;38.36
60654;BME280;46476;53.614;10.048;2022-08-02T11:29:50;101460.75;;;22.70;41.11
60654;BME280;46476;53.614;10.048;2022-08-02T11:32:17;101460.97;;;22.75;41.04
60654;BME280;46476;53.614;10.048;2022-08-02T11:34:45;101459.47;;;22.79;40.91
60654;BME280;46476;53.614;10.048;2022-08-02T11:37:11;101453.53;;;22.82;40.96
60654;BME280;46476;53.614;10.048;2022-08-02T11:39:37;101446.06;;;22.83;39.97
60654;BME280;46476;53.614;10.048;2022-08-02T11:42:02;101439.91;;;22.81;40.05
60654;BME280;46476;53.614;10.048;2022-08-02T11:44:39;101442.03;;;22.85;40.35
60654;BME280;46476;53.614;10.048;2022-08-02T11:47:05;101450.97;;;22.87;40.27
60654;BME280;46476;53.614;10.048;2022-08-02T11:49:32;101453.06;;;22.85;40.43
60654;BME280;46476;53.614;10.048;2022-08-02T11:52:00;101452.63;;;22.88;40.44
60654;BME280;46476;53.614;10.048;2022-08-02T11:54:49;101451.16;;;22.93;39.79
60654;BME280;46476;53.614;10.048;2022-08-02T11:57:20;101448.16;;;22.94;40.25
60654;BME280;46476;53.614;10.048;2022-08-02T11:59:48;101447.72;;;22.97;40.46
60654;BME280;46476;53.614;10.048;2022-08-02T12:02:15;101440.31;;;22.98;40.26
60654;BME280;46476;53.614;10.048;2022-08-02T12:04:40;101431.56;;;23.01;40.17
60654;BME280;46476;53.614;10.048;2022-08-02T12:07:06;101430.75;;;22.94;39.29
60654;BME280;46476;53.614;10.048;2022-08-02T12:09:34;101433.09;;;22.97;40.26
60654;BME280;46476;53.614;10.048;2022-08-02T12:12:01;101429.03;;;22.99;40.64
60654;BME280;46476;53.614;10.048;2022-08-02T12:14:28;101418.41;;;23.03;40.23
60654;BME280;46476;53.614;10.048;2022-08-02T12:16:54;101403.50;;;23.04;39.72
60654;BME280;46476;53.614;10.048;2022-08-02T12:19:39;101394.56;;;23.08;40.35
60654;BME280;46476;53.614;10.048;2022-08-02T12:22:10;101412.84;;;23.10;40.43
60654;BME280;46476;53.614;10.048;2022-08-02T12:24:37;101417.94;;;23.13;39.66
60654;BME280;46476;53.614;10.048;2022-08-02T12:27:03;101408.38;;;23.15;40.10
60654;BME280;46476;53.614;10.048;2022-08-02T12:29:36;101406.47;;;23.16;40.00
60654;BME280;46476;53.614;10.048;2022-08-02T12:32:03;101406.88;;;23.19;40.48
60654;BME280;46476;53.614;10.048;2022-08-02T12:34:30;101402.00;;;23.21;40.84
60654;BME280;46476;53.614;10.048;2022-08-02T12:37:00;101399.63;;;23.25;40.45
60654;BME280;46476;53.614;10.048;2022-08-02T12:42:05;101396.66;;;23.27;41.18
60654;BME280;46476;53.614;10.048;2022-08-02T12:44:32;101396.66;;;23.27;40.56
60654;BME280;46476;53.614;10.048;2022-08-02T12:47:06;101400.03;;;23.29;40.94
60654;BME280;46476;53.614;10.048;2022-08-02T12:49:32;101392.19;;;23.26;39.71
60654;BME280;46476;53.614;10.048;2022-08-02T12:51:57;101387.69;;;23.31;39.59
60654;BME280;46476;53.614;10.048;2022-08-02T12:54:26;101381.31;;;23.31;39.82
60654;BME280;46476;53.614;10.048;2022-08-02T12:56:52;101373.66;;;23.33;40.31
60654;BME280;46476;53.614;10.048;2022-08-02T12:59:38;101373.66;;;23.33;39.53
60654;BME280;46476;53.614;10.048;2022-08-02T13:02:06;101383.44;;;23.35;39.99
60654;BME280;46476;53.614;10.048;2022-08-02T13:04:32;101383.81;;;23.39;39.97
60654;BME280;46476;53.614;10.048;2022-08-02T13:06:58;101379.97;;;23.40;40.06
60654;BME280;46476;53.614;10.048;2022-08-02T13:09:23;101384.44;;;23.41;40.43